Time;durP1;ratioP1;P1;durP2;ratioP2;P2;SDS_P1;SDS_P2;PMS_P1;PMS_P2;Temp;Humidity;BMP_temperature;BMP_pressure;BME280_temperature;BME280_humidity;BME280_pressure;Samples;Min_cycle;Max_cycle;Signal;HPM_P1;HPM_P2
2022/12/14 00:00:44;;;;;;;27.95;14.30;;;;;;;-3.77;100.00;100322.94;5065263;28;20483;-64
2022/12/14 00:03:10;;;;;;;27.15;13.85;;;;;;;-3.77;100.00;100321.25;5065900;28;20051;-64
2022/12/14 00:05:35;;;;;;;27.85;13.90;;;;;;;-3.80;100.00;100308.19;5066094;28;20128;-65
2022/12/14 00:08:01;;;;;;;26.27;13.25;;;;;;;-3.78;100.00;100303.09;5064852;28;20033;-64
2022/12/14 00:10:27;;;;;;;26.25;13.35;;;;;;;-3.78;100.00;100292.75;5067232;28;20107;-65
2022/12/14 00:12:52;;;;;;;25.70;12.55;;;;;;;-3.77;100.00;100294.50;5063872;28;20059;-65
2022/12/14 00:15:18;;;;;;;25.92;13.23;;;;;;;-3.80;100.00;100282.34;5066946;28;20071;-64
2022/12/14 00:17:43;;;;;;;26.42;13.15;;;;;;;-3.82;100.00;100289.09;5064839;28;20041;-64
2022/12/14 00:20:09;;;;;;;27.42;13.30;;;;;;;-3.86;100.00;100280.31;5065426;28;20033;-65
2022/12/14 00:22:34;;;;;;;26.45;13.23;;;;;;;-3.88;100.00;100291.38;5064794;28;20048;-65
2022/12/14 00:25:01;;;;;;;25.17;12.35;;;;;;;-3.93;100.00;100287.63;5062770;28;20503;-65
2022/12/14 00:27:26;;;;;;;25.80;12.32;;;;;;;-3.95;100.00;100284.09;5067278;28;20033;-64
2022/12/14 00:29:52;;;;;;;27.35;13.25;;;;;;;-3.99;100.00;100293.41;5059805;28;20075;-66
2022/12/14 00:32:17;;;;;;;26.30;13.15;;;;;;;-4.09;100.00;100296.25;5066720;28;20021;-64
2022/12/14 00:34:42;;;;;;;27.55;13.20;;;;;;;-4.07;100.00;100290.38;5065172;28;20043;-64
2022/12/14 00:37:08;;;;;;;25.65;12.82;;;;;;;-4.06;100.00;100283.53;5064946;28;20447;-64
2022/12/14 00:39:33;;;;;;;26.45;13.15;;;;;;;-4.12;100.00;100278.94;5064928;28;20017;-65
2022/12/14 00:41:58;;;;;;;25.98;12.68;;;;;;;-4.15;100.00;100276.19;5064010;28;20032;-64
2022/12/14 00:44:24;;;;;;;26.17;13.48;;;;;;;-4.17;100.00;100271.72;5066698;28;20510;-64
2022/12/14 00:46:49;;;;;;;26.23;12.88;;;;;;;-4.27;100.00;100267.75;5063586;28;20450;-65
2022/12/14 00:49:14;;;;;;;27.92;13.18;;;;;;;-4.30;100.00;100259.84;5065615;28;20132;-65
2022/12/14 00:51:40;;;;;;;27.10;13.80;;;;;;;-4.33;100.00;100255.41;5064769;28;20428;-65
2022/12/14 00:54:05;;;;;;;26.13;13.00;;;;;;;-4.41;100.00;100244.66;5064464;28;20025;-64
2022/12/14 00:56:31;;;;;;;26.95;13.75;;;;;;;-4.45;100.00;100249.59;5066147;28;20063;-65
2022/12/14 00:58:56;;;;;;;27.05;13.52;;;;;;;-4.55;100.00;100249.06;5062977;28;20469;-64
2022/12/14 01:01:21;;;;;;;26.92;12.98;;;;;;;-4.60;100.00;100245.34;5066560;28;20056;-64
2022/12/14 01:03:47;;;;;;;26.15;12.93;;;;;;;-4.63;100.00;100245.19;5063537;28;20412;-64
2022/12/14 01:06:18;;;;;;;26.20;13.30;;;;;;;-4.69;100.00;100247.38;5065134;28;20135;-67
2022/12/14 01:08:44;;;;;;;26.13;12.88;;;;;;;-4.72;100.00;100254.97;5063933;28;20029;-68
2022/12/14 01:11:11;;;;;;;26.60;13.15;;;;;;;-4.80;100.00;100246.81;5063520;28;20242;-66
2022/12/14 01:13:37;;;;;;;26.08;13.30;;;;;;;-4.86;100.00;100245.56;5065192;28;20383;-68
2022/12/14 01:16:05;;;;;;;27.65;14.05;;;;;;;-4.89;100.00;100241.13;5063413;28;20029;-66
2022/12/14 01:18:35;;;;;;;27.15;13.50;;;;;;;-4.90;100.00;100234.19;5065796;28;20032;-67
2022/12/14 01:21:19;;;;;;;26.85;13.48;;;;;;;-4.92;100.00;100233.22;5063115;28;20029;-65
2022/12/14 01:23:45;;;;;;;26.92;13.43;;;;;;;-4.88;100.00;100236.84;5063440;28;20410;-66
2022/12/14 01:26:12;;;;;;;26.38;13.13;;;;;;;-4.80;100.00;100226.16;5064425;28;20048;-66
2022/12/14 01:28:39;;;;;;;27.02;13.45;;;;;;;-4.71;100.00;100227.50;5064601;28;20023;-67
2022/12/14 01:31:09;;;;;;;26.58;13.15;;;;;;;-4.66;100.00;100228.63;5063287;28;20037;-67
2022/12/14 01:33:34;;;;;;;26.70;13.55;;;;;;;-4.61;100.00;100222.03;5064773;28;20020;-71
2022/12/14 01:36:12;;;;;;;27.83;13.55;;;;;;;-4.63;100.00;100223.63;5042001;28;20032;-70
2022/12/14 01:38:38;;;;;;;26.80;13.43;;;;;;;-4.70;100.00;100212.09;5064738;28;20036;-71
2022/12/14 01:41:05;;;;;;;27.40;13.70;;;;;;;-4.63;100.00;100214.22;5063302;28;20464;-66
2022/12/14 01:43:47;;;;;;;26.90;13.32;;;;;;;-4.63;100.00;100227.13;5065596;28;20375;-65
2022/12/14 01:46:17;;;;;;;26.38;13.18;;;;;;;-4.66;100.00;100223.47;5064614;28;20029;-65
2022/12/14 01:48:43;;;;;;;26.65;13.27;;;;;;;-4.67;100.00;100230.31;5063366;28;20037;-64
2022/12/14 01:51:08;;;;;;;26.95;13.30;;;;;;;-4.71;100.00;100230.06;5062152;28;20471;-65
2022/12/14 01:53:34;;;;;;;25.40;12.65;;;;;;;-4.71;100.00;100228.38;5064793;28;20117;-64
2022/12/14 01:55:59;;;;;;;26.10;12.88;;;;;;;-4.69;100.00;100228.47;5062267;28;20029;-65
2022/12/14 01:58:27;;;;;;;26.67;12.70;;;;;;;-4.71;100.00;100218.06;5065261;28;20463;-65
2022/12/14 02:00:56;;;;;;;25.85;12.57;;;;;;;-4.73;100.00;100222.25;5058028;28;20111;-65
2022/12/14 02:03:26;;;;;;;26.38;13.00;;;;;;;-4.71;100.00;100215.47;5065016;28;20026;-64
2022/12/14 02:06:00;;;;;;;26.25;13.10;;;;;;;-4.72;100.00;100205.97;5061852;28;20033;-64
2022/12/14 02:08:26;;;;;;;25.80;12.65;;;;;;;-4.74;100.00;100215.31;5058162;28;20384;-65
2022/12/14 02:10:53;;;;;;;27.38;13.48;;;;;;;-4.77;100.00;100210.00;5065038;28;20032;-65
2022/12/14 02:13:24;;;;;;;26.98;13.00;;;;;;;-4.82;100.00;100196.84;5062232;28;20037;-65
2022/12/14 02:15:50;;;;;;;26.05;13.13;;;;;;;-4.91;100.00;100204.03;5064559;28;20020;-65
2022/12/14 02:18:27;;;;;;;26.13;13.27;;;;;;;-4.96;100.00;100198.63;5062554;28;20021;-65
2022/12/14 02:20:55;;;;;;;26.52;13.55;;;;;;;-4.96;100.00;100196.06;5064949;28;20052;-65
2022/12/14 02:23:40;;;;;;;26.13;13.02;;;;;;;-4.92;100.00;100202.28;5061718;28;20464;-65
2022/12/14 02:27:02;;;;;;;26.63;13.00;;;;;;;-4.91;100.00;100199.78;5060364;28;20475;-65
2022/12/14 02:29:46;;;;;;;26.85;13.40;;;;;;;-4.86;100.00;100188.81;4996557;28;20026;-65
2022/12/14 02:32:21;;;;;;;26.33;12.65;;;;;;;-4.84;100.00;100187.25;5001653;28;20162;-65
2022/12/14 02:35:11;;;;;;;25.65;13.13;;;;;;;-4.80;100.00;100184.91;5048324;28;20439;-66
2022/12/14 02:38:04;;;;;;;26.13;13.07;;;;;;;-4.80;100.00;100184.91;5060327;28;20064;-70
2022/12/14 02:40:45;;;;;;;27.45;13.30;;;;;;;-4.80;100.00;100181.44;5058537;28;20444;-70
2022/12/14 02:43:20;;;;;;;26.13;13.27;;;;;;;-4.80;100.00;100179.75;5062816;28;20024;-69
2022/12/14 02:45:46;;;;;;;26.35;13.23;;;;;;;-4.83;100.00;100178.72;5063675;28;20025;-69
2022/12/14 02:48:23;;;;;;;26.40;12.93;;;;;;;-4.83;100.00;100183.88;5062459;28;20068;-71
2022/12/14 02:51:22;;;;;;;26.92;14.00;;;;;;;-4.88;100.00;100180.13;5063871;28;20086;-71
2022/12/14 02:53:55;;;;;;;27.05;12.82;;;;;;;-4.85;100.00;100182.88;5063161;28;20502;-71
2022/12/14 02:56:36;;;;;;;27.52;13.30;;;;;;;-4.83;100.00;100176.13;5061238;28;20036;-71
2022/12/14 02:59:05;;;;;;;26.98;13.65;;;;;;;-4.77;100.00;100179.03;5058255;28;20111;-70
2022/12/14 03:01:33;;;;;;;26.20;13.13;;;;;;;-4.71;100.00;100173.34;5063857;28;20035;-71
2022/12/14 03:03:59;;;;;;;25.98;12.88;;;;;;;-4.67;100.00;100183.91;5060495;28;20495;-71
2022/12/14 03:06:25;;;;;;;26.42;12.95;;;;;;;-4.62;100.00;100190.19;5063174;28;20028;-71
2022/12/14 03:09:11;;;;;;;26.85;13.60;;;;;;;-4.59;100.00;100182.63;5061115;28;20037;-70
2022/12/14 03:11:45;;;;;;;25.73;13.15;;;;;;;-4.53;100.00;100184.63;5059565;28;20480;-71
2022/12/14 03:14:17;;;;;;;25.50;12.95;;;;;;;-4.50;100.00;100187.41;5062681;28;20028;-71
2022/12/14 03:16:46;;;;;;;26.20;13.00;;;;;;;-4.53;100.00;100184.63;5063026;28;20029;-71
2022/12/14 03:19:24;;;;;;;27.10;13.30;;;;;;;-4.54;100.00;100182.88;5062575;28;20271;-70
2022/12/14 03:21:55;;;;;;;26.30;13.20;;;;;;;-4.53;100.00;100173.44;5062211;28;20020;-71
2022/12/14 03:24:28;;;;;;;27.02;13.88;;;;;;;-4.50;100.00;100163.28;5061195;28;20029;-70
2022/12/14 03:27:04;;;;;;;26.40;13.15;;;;;;;-4.47;100.00;100164.34;5056947;28;20025;-71
2022/12/14 03:29:39;;;;;;;27.40;13.73;;;;;;;-4.49;100.00;100157.31;5057597;28;20104;-71
2022/12/14 03:32:09;;;;;;;26.80;13.80;;;;;;;-4.48;100.00;100157.41;5063408;28;20109;-71
2022/12/14 03:34:52;;;;;;;26.58;13.35;;;;;;;-4.51;100.00;100143.44;5061306;28;20494;-72
2022/12/14 03:37:29;;;;;;;26.85;12.90;;;;;;;-4.47;100.00;100141.13;5061293;28;20515;-71
2022/12/14 03:39:54;;;;;;;26.13;13.07;;;;;;;-4.48;100.00;100133.28;5056701;28;20025;-71
2022/12/14 03:42:34;;;;;;;26.35;13.75;;;;;;;-4.45;100.00;100139.50;5062115;28;20026;-71
2022/12/14 03:45:05;;;;;;;27.52;14.07;;;;;;;-4.48;100.00;100133.28;5055932;28;20365;-71
2022/12/14 03:47:50;;;;;;;26.27;13.40;;;;;;;-4.46;100.00;100123.94;5063663;28;20039;-70
2022/12/14 03:50:22;;;;;;;27.63;14.23;;;;;;;-4.45;100.00;100142.06;5062654;28;20044;-71
2022/12/14 03:53:00;;;;;;;27.75;14.15;;;;;;;-4.46;100.00;100129.97;5060133;28;20052;-70
2022/12/14 03:55:37;;;;;;;26.63;14.02;;;;;;;-4.45;100.00;100136.03;5056906;28;20029;-71
2022/12/14 03:58:19;;;;;;;27.10;14.27;;;;;;;-4.43;100.00;100129.25;5056911;28;20057;-71
2022/12/14 04:00:55;;;;;;;27.75;14.32;;;;;;;-4.43;100.00;100118.94;5062135;28;20032;-71
2022/12/14 04:03:51;;;;;;;29.48;14.48;;;;;;;-4.41;100.00;100119.91;5062007;28;20039;-70
2022/12/14 04:06:29;;;;;;;27.42;13.70;;;;;;;-4.44;100.00;100119.72;5037852;28;20108;-70
2022/12/14 04:09:11;;;;;;;26.48;13.68;;;;;;;-4.42;100.00;100112.97;5056417;28;20032;-64
2022/12/14 04:20:24;;;;;;;27.08;13.90;;;;;;;-4.43;100.00;100087.97;5032384;28;20147;-65
2022/12/14 04:23:01;;;;;;;26.17;13.65;;;;;;;-4.43;100.00;100093.13;5066597;28;20071;-64
2022/12/14 04:31:16;;;;;;;26.48;13.90;;;;;;;-4.42;100.00;100094.91;5063998;28;20479;-64
2022/12/14 04:33:48;;;;;;;26.20;13.55;;;;;;;-4.45;100.00;100090.47;5065223;28;20032;-64
2022/12/14 04:36:26;;;;;;;26.70;14.07;;;;;;;-4.46;100.00;100087.81;5065486;28;20480;-64
2022/12/14 04:39:01;;;;;;;27.08;13.77;;;;;;;-4.51;100.00;100078.91;5064022;28;20060;-64
2022/12/14 04:41:33;;;;;;;27.15;13.75;;;;;;;-4.50;100.00;100080.69;5059615;28;20032;-64
2022/12/14 04:44:08;;;;;;;27.63;14.73;;;;;;;-4.50;100.00;100076.44;5060155;28;20044;-64
2022/12/14 04:46:36;;;;;;;26.85;13.85;;;;;;;-4.54;100.00;100074.50;5061214;28;20033;-64
2022/12/14 04:49:15;;;;;;;26.95;14.18;;;;;;;-4.53;100.00;100070.22;5066228;28;20118;-64
2022/12/14 04:51:51;;;;;;;28.02;14.77;;;;;;;-4.53;100.00;100072.81;5064742;28;20036;-64
2022/12/14 04:54:24;;;;;;;28.35;14.50;;;;;;;-4.52;100.00;100072.00;5064231;28;20017;-64
2022/12/14 04:57:03;;;;;;;26.48;13.70;;;;;;;-4.48;100.00;100073.94;5066051;28;20033;-64
2022/12/14 04:59:31;;;;;;;26.65;14.20;;;;;;;-4.52;100.00;100072.00;5059859;28;20025;-71
2022/12/14 05:02:11;;;;;;;27.15;13.85;;;;;;;-4.51;100.00;100063.44;5058285;28;20388;-70
2022/12/14 05:05:09;;;;;;;26.73;13.50;;;;;;;-4.52;100.00;100064.28;5061815;28;20033;-69
2022/12/14 05:07:59;;;;;;;27.38;13.98;;;;;;;-4.52;100.00;100061.69;5060685;28;20119;-70
2022/12/14 05:10:35;;;;;;;26.55;13.65;;;;;;;-4.52;100.00;100062.56;5063095;28;20029;-71
2022/12/14 05:13:06;;;;;;;26.20;13.57;;;;;;;-4.52;100.00;100066.84;5059538;28;20107;-69
2022/12/14 05:15:39;;;;;;;27.33;14.05;;;;;;;-4.52;100.00;100061.69;5065906;28;20055;-70
2022/12/14 05:18:06;;;;;;;27.10;13.98;;;;;;;-4.55;100.00;100055.53;5063368;28;20025;-70
2022/12/14 05:20:32;;;;;;;27.27;13.90;;;;;;;-4.52;100.00;100054.81;5066093;28;20035;-69
2022/12/14 05:22:57;;;;;;;26.58;13.80;;;;;;;-4.53;100.00;100052.16;5062851;28;20524;-70
2022/12/14 05:25:23;;;;;;;27.52;14.80;;;;;;;-4.55;100.00;100046.94;5065332;28;20063;-65
2022/12/14 05:27:48;;;;;;;26.25;13.57;;;;;;;-4.58;100.00;100042.50;5063629;28;20483;-70
2022/12/14 05:30:16;;;;;;;26.92;13.95;;;;;;;-4.58;100.00;100041.63;5064430;28;20051;-70
2022/12/14 05:32:41;;;;;;;27.85;13.65;;;;;;;-4.59;100.00;100045.91;5064514;28;20071;-70
2022/12/14 05:35:10;;;;;;;27.25;14.20;;;;;;;-4.56;100.00;100047.72;5063222;28;20037;-68
2022/12/14 05:37:35;;;;;;;27.27;14.27;;;;;;;-4.60;100.00;100044.13;5063769;28;20036;-70
2022/12/14 05:40:00;;;;;;;28.15;14.25;;;;;;;-4.60;100.00;100048.38;5062535;28;20037;-70
2022/12/14 05:42:26;;;;;;;27.02;13.60;;;;;;;-4.57;100.00;100049.44;5065757;28;20119;-70
2022/12/14 05:44:51;;;;;;;28.52;14.52;;;;;;;-4.56;100.00;100052.88;5062830;28;20063;-70
2022/12/14 05:47:16;;;;;;;26.45;13.57;;;;;;;-4.59;100.00;100039.81;5064876;28;20468;-70
2022/12/14 05:49:42;;;;;;;26.20;13.30;;;;;;;-4.60;100.00;100038.94;5063713;28;20052;-70
2022/12/14 05:52:07;;;;;;;26.20;13.30;;;;;;;-4.55;100.00;100047.81;5063215;28;20031;-69
2022/12/14 05:54:32;;;;;;;26.40;13.70;;;;;;;-4.58;100.00;100047.66;5065459;28;20029;-70
2022/12/14 05:56:58;;;;;;;27.10;13.55;;;;;;;-4.57;100.00;100044.28;5061923;28;20029;-70
2022/12/14 05:59:23;;;;;;;27.98;13.90;;;;;;;-4.55;100.00;100041.75;5065271;28;20450;-70
2022/12/14 06:01:49;;;;;;;28.65;14.38;;;;;;;-4.55;100.00;100046.94;5062945;28;20028;-70
2022/12/14 06:04:16;;;;;;;28.40;14.65;;;;;;;-4.49;100.00;100042.06;5063588;28;20055;-70
2022/12/14 06:06:41;;;;;;;28.15;15.13;;;;;;;-4.50;100.00;100039.41;5063692;28;20032;-70
2022/12/14 06:09:09;;;;;;;26.98;14.60;;;;;;;-4.50;100.00;100034.25;5062984;28;20029;-67
2022/12/14 06:11:39;;;;;;;29.42;14.70;;;;;;;-4.47;100.00;100035.31;5064622;28;20021;-66
2022/12/14 06:14:05;;;;;;;28.40;15.23;;;;;;;-4.47;100.00;100034.41;5060878;28;20024;-69
2022/12/14 06:16:32;;;;;;;27.33;14.93;;;;;;;-4.48;100.00;100032.66;5065339;28;20029;-68
2022/12/14 06:18:59;;;;;;;26.83;14.38;;;;;;;-4.50;100.00;100023.94;5060199;28;20025;-66
2022/12/14 06:21:27;;;;;;;27.58;14.98;;;;;;;-4.50;100.00;100021.34;5064716;28;20044;-65
2022/12/14 06:23:54;;;;;;;26.75;14.30;;;;;;;-4.49;100.00;100030.88;5061829;28;20171;-66
2022/12/14 06:26:19;;;;;;;30.13;14.38;;;;;;;-4.49;100.00;100023.13;5063972;28;20467;-66
2022/12/14 06:28:45;;;;;;;27.40;14.25;;;;;;;-4.49;100.00;100030.88;5062813;28;20106;-68
2022/12/14 06:31:15;;;;;;;28.42;14.68;;;;;;;-4.47;100.00;100030.16;5062815;28;20037;-66
2022/12/14 06:33:41;;;;;;;28.55;14.90;;;;;;;-4.47;100.00;100034.41;5063299;28;20040;-68
2022/12/14 06:36:25;;;;;;;27.00;14.38;;;;;;;-4.51;100.00;100028.22;5057903;28;20036;-66
2022/12/14 06:38:52;;;;;;;27.65;14.88;;;;;;;-4.50;100.00;100023.94;5061167;28;20067;-64
2022/12/14 06:41:18;;;;;;;27.75;14.45;;;;;;;-4.53;100.00;100029.81;5061802;28;20036;-64
2022/12/14 06:43:44;;;;;;;27.33;15.00;;;;;;;-4.53;100.00;100032.41;5062683;28;20021;-64
2022/12/14 06:46:12;;;;;;;27.20;14.20;;;;;;;-4.51;100.00;100045.38;5064415;28;20017;-63
2022/12/14 06:48:38;;;;;;;28.70;14.80;;;;;;;-4.55;100.00;100040.06;5056945;28;20041;-63
2022/12/14 06:51:05;;;;;;;28.95;15.10;;;;;;;-4.57;100.00;100044.28;5060785;28;20032;-63
2022/12/14 06:53:30;;;;;;;29.75;15.75;;;;;;;-4.57;100.00;100040.81;5059709;28;20037;-64
2022/12/14 06:56:10;;;;;;;28.60;15.50;;;;;;;-4.56;100.00;100038.31;5060300;28;20097;-64
2022/12/14 06:58:36;;;;;;;28.40;15.98;;;;;;;-4.55;100.00;100046.94;5057444;28;20099;-63
2022/12/14 07:01:07;;;;;;;29.42;16.35;;;;;;;-4.57;100.00;100044.28;5060293;28;20116;-63
2022/12/14 07:03:33;;;;;;;27.77;15.55;;;;;;;-4.51;100.00;100038.53;5055139;28;20045;-64
2022/12/14 07:06:00;;;;;;;31.13;15.68;;;;;;;-4.54;100.00;100043.56;5058895;28;20033;-64
2022/12/14 07:08:27;;;;;;;29.80;15.95;;;;;;;-4.56;100.00;100046.06;5058037;28;20064;-63
2022/12/14 07:10:52;;;;;;;28.48;15.82;;;;;;;-4.50;100.00;100049.75;5064053;28;20060;-63
2022/12/14 07:13:18;;;;;;;27.65;15.20;;;;;;;-4.57;100.00;100044.28;5065812;28;20109;-64
2022/12/14 07:15:50;;;;;;;31.08;15.85;;;;;;;-4.57;100.00;100043.41;5061733;28;20472;-64
2022/12/14 07:18:15;;;;;;;31.58;16.25;;;;;;;-4.58;100.00;100047.66;5063283;28;20024;-65
2022/12/14 07:20:41;;;;;;;31.88;16.25;;;;;;;-4.56;100.00;100046.06;5063850;28;20028;-64
2022/12/14 07:23:06;;;;;;;30.13;15.30;;;;;;;-4.57;100.00;100049.44;5063687;28;20484;-64
2022/12/14 07:25:31;;;;;;;29.88;15.52;;;;;;;-4.62;100.00;100040.53;5061607;28;20380;-70
2022/12/14 07:27:57;;;;;;;29.65;15.52;;;;;;;-4.64;100.00;100044.75;5061426;28;20473;-68
2022/12/14 07:30:22;;;;;;;29.00;15.35;;;;;;;-4.67;100.00;100048.88;5063180;28;20088;-68
2022/12/14 07:32:47;;;;;;;29.02;15.98;;;;;;;-4.73;100.00;100057.19;5062150;28;20116;-67
2022/12/14 07:35:13;;;;;;;29.63;15.88;;;;;;;-4.80;100.00;100052.50;5056962;28;20522;-68
2022/12/14 07:37:38;;;;;;;28.77;15.43;;;;;;;-4.84;100.00;100053.13;5060623;28;20048;-68
2022/12/14 07:40:04;;;;;;;27.77;15.05;;;;;;;-4.88;100.00;100053.78;5062762;28;20104;-71
2022/12/14 07:42:29;;;;;;;30.05;15.57;;;;;;;-4.95;100.00;100056.03;5061802;28;20029;-68
2022/12/14 07:44:55;;;;;;;29.98;16.65;;;;;;;-5.01;100.00;100050.53;5063712;28;20033;-68
2022/12/14 07:47:20;;;;;;;28.73;16.60;;;;;;;-5.01;100.00;100050.53;5061199;28;20061;-70
2022/12/14 07:49:45;;;;;;;29.42;15.98;;;;;;;-5.05;100.00;100053.75;5064158;28;20061;-68
2022/12/14 07:52:11;;;;;;;28.80;15.88;;;;;;;-5.07;100.00;100055.34;5064339;28;20040;-68
2022/12/14 07:54:36;;;;;;;30.17;15.85;;;;;;;-5.11;100.00;100048.25;5065829;28;20078;-70
2022/12/14 07:57:01;;;;;;;30.58;15.73;;;;;;;-5.16;100.00;100055.72;5057237;28;20388;-67
2022/12/14 07:59:27;;;;;;;32.72;16.27;;;;;;;-5.21;100.00;100058.84;5067953;28;20025;-71
2022/12/14 08:01:54;;;;;;;28.88;15.60;;;;;;;-5.26;100.00;100058.63;5066386;28;20032;-69
2022/12/14 08:04:20;;;;;;;29.80;15.60;;;;;;;-5.28;100.00;100063.69;5061584;28;20075;-68
2022/12/14 08:06:47;;;;;;;30.52;15.98;;;;;;;-5.36;100.00;100067.50;5061567;28;20029;-67
2022/12/14 08:09:14;;;;;;;28.40;15.60;;;;;;;-5.38;100.00;100069.13;5064367;28;20064;-67
2022/12/14 08:11:39;;;;;;;31.10;17.48;;;;;;;-5.39;100.00;100069.91;5068787;28;20063;-70
2022/12/14 08:14:10;;;;;;;30.65;17.50;;;;;;;-5.36;100.00;100067.50;5063961;28;20080;-70
2022/12/14 08:16:35;;;;;;;32.28;18.58;;;;;;;-5.29;100.00;100063.59;5071692;28;20024;-68
2022/12/14 08:19:01;;;;;;;31.63;18.50;;;;;;;-5.20;100.00;100070.94;5059936;28;20036;-68
2022/12/14 08:21:27;;;;;;;33.13;17.60;;;;;;;-5.20;100.00;100070.94;5056690;28;20032;-68
2022/12/14 08:23:54;;;;;;;29.95;16.30;;;;;;;-5.27;100.00;100078.34;5057293;28;20032;-69
2022/12/14 08:26:20;;;;;;;31.92;18.05;;;;;;;-5.27;100.00;100085.22;5054796;28;20037;-67
2022/12/14 08:28:47;;;;;;;34.30;23.30;;;;;;;-5.31;100.00;100084.13;5057194;28;20028;-67
2022/12/14 08:31:15;;;;;;;33.25;20.13;;;;;;;-5.31;100.00;100078.97;5055519;28;20457;-69
2022/12/14 08:33:42;;;;;;;31.80;18.65;;;;;;;-5.29;100.00;100074.78;5056915;28;20035;-67
2022/12/14 08:36:11;;;;;;;33.35;19.02;;;;;;;-5.29;100.00;100079.94;5061362;28;20029;-68
2022/12/14 08:38:36;;;;;;;31.33;17.27;;;;;;;-5.30;100.00;100088.50;5067515;28;20029;-66
2022/12/14 08:41:06;;;;;;;32.30;17.13;;;;;;;-5.33;100.00;100080.59;5064346;28;20029;-66
2022/12/14 08:43:32;;;;;;;29.55;16.55;;;;;;;-5.37;100.00;100078.66;5064958;28;20061;-67
2022/12/14 08:45:57;;;;;;;31.50;17.58;;;;;;;-5.40;100.00;100088.78;5065126;28;20110;-67
2022/12/14 08:48:23;;;;;;;32.42;17.80;;;;;;;-5.41;100.00;100087.00;5063520;28;20041;-66
2022/12/14 08:50:49;;;;;;;31.63;17.52;;;;;;;-5.40;100.00;100081.06;5064960;28;20107;-65
2022/12/14 08:53:14;;;;;;;32.15;17.70;;;;;;;-5.36;100.00;100084.69;5065930;28;20016;-65
2022/12/14 08:55:40;;;;;;;30.83;17.70;;;;;;;-5.33;100.00;100078.03;5064232;28;20048;-65
2022/12/14 08:58:05;;;;;;;31.83;17.33;;;;;;;-5.30;100.00;100075.59;5063242;28;20025;-65
2022/12/14 09:00:30;;;;;;;32.35;18.63;;;;;;;-5.30;100.00;100083.34;5065620;28;20068;-67
2022/12/14 09:02:56;;;;;;;34.75;19.63;;;;;;;-5.25;100.00;100081.88;5066079;28;20063;-64
2022/12/14 09:05:21;;;;;;;33.97;19.25;;;;;;;-5.02;100.00;100081.38;5064279;28;20044;-63
2022/12/14 09:07:46;;;;;;;35.60;18.90;;;;;;;-4.84;100.00;100091.81;5064415;28;20029;-63
2022/12/14 09:10:12;;;;;;;32.45;17.98;;;;;;;-4.46;100.00;100087.81;5065363;28;20028;-65
2022/12/14 09:12:38;;;;;;;30.95;17.40;;;;;;;-4.02;100.00;100086.63;5063525;28;20021;-63
2022/12/14 09:15:04;;;;;;;32.70;17.27;;;;;;;-3.54;100.00;100095.06;5066549;28;20039;-63
2022/12/14 09:17:30;;;;;;;31.83;17.50;;;;;;;-3.17;100.00;100089.06;5062569;28;20075;-63
2022/12/14 09:19:56;;;;;;;30.10;16.33;;;;;;;-3.07;100.00;100100.75;5065449;28;20048;-63
2022/12/14 09:22:22;;;;;;;28.45;15.73;;;;;;;-2.89;100.00;100105.00;5063667;28;20097;-63
2022/12/14 09:24:49;;;;;;;31.52;16.52;;;;;;;-2.71;100.00;100099.78;5064051;28;20029;-63
2022/12/14 09:27:14;;;;;;;27.23;14.70;;;;;;;-2.66;100.00;100100.88;5063619;28;20029;-63
2022/12/14 09:29:40;;;;;;;28.27;14.63;;;;;;;-2.83;100.00;100106.16;5063053;28;20020;-64
2022/12/14 09:32:05;;;;;;;26.50;14.50;;;;;;;-2.97;100.00;100112.41;5062780;28;20029;-64
2022/12/14 09:34:31;;;;;;;28.52;14.65;;;;;;;-3.00;100.00;100107.06;5066133;28;20032;-63
2022/12/14 09:36:56;;;;;;;27.65;14.45;;;;;;;-2.98;100.00;100110.63;5062615;28;20361;-63
2022/12/14 09:39:21;;;;;;;27.38;14.80;;;;;;;-2.66;100.00;100104.34;5064738;28;20117;-63
2022/12/14 09:41:56;;;;;;;28.65;14.65;;;;;;;-2.09;100.00;100105.13;5064135;28;20095;-64
2022/12/14 09:44:52;;;;;;;26.40;14.35;;;;;;;-1.70;100.00;100100.75;5064824;28;20037;-63
2022/12/14 09:47:31;;;;;;;27.52;13.85;;;;;;;-1.51;100.00;100098.94;5063098;28;20096;-64
2022/12/14 09:50:01;;;;;;;29.23;14.30;;;;;;;-1.43;100.00;100087.13;5062265;28;20033;-64
2022/12/14 09:53:00;;;;;;;25.92;13.70;;;;;;;-1.15;100.00;100088.25;5063778;28;20030;-64
2022/12/14 09:55:33;;;;;;;26.00;13.68;;;;;;;-1.06;100.00;100104.19;5031637;28;20128;-64
2022/12/14 09:58:20;;;;;;;26.88;13.80;;;;;;;-0.75;100.00;100101.06;5060047;28;20543;-63
2022/12/14 10:01:23;;;;;;;26.65;13.38;;;;;;;-0.59;100.00;100106.84;5064914;28;20067;-69
2022/12/14 10:04:07;;;;;;;26.63;13.10;;;;;;;-0.44;100.00;100109.09;5058218;28;20034;-70
2022/12/14 10:06:41;;;;;;;26.95;13.35;;;;;;;-0.56;100.00;100099.16;5061232;28;20147;-69
2022/12/14 10:09:09;;;;;;;25.58;12.63;;;;;;;-0.68;100.00;100106.47;5063288;28;20039;-68
2022/12/14 10:11:56;;;;;;;26.27;12.98;;;;;;;-0.69;100.00;100099.53;5063235;28;20029;-69
2022/12/14 10:14:47;;;;;;;26.70;12.70;;;;;;;-0.20;100.00;100090.94;5058007;28;20025;-67
2022/12/14 10:17:41;;;;;;;25.05;12.20;;;;;;;-0.36;100.00;100090.38;5063355;28;20028;-68
2022/12/14 10:20:10;;;;;;;23.80;12.00;;;;;;;-0.50;100.00;100085.53;5061754;28;20504;-67
2022/12/14 10:22:41;;;;;;;24.45;11.73;;;;;;;-0.52;100.00;100085.47;5063224;28;20149;-66
2022/12/14 10:25:21;;;;;;;24.80;11.90;;;;;;;-0.25;100.00;100097.69;5063322;28;20454;-67
2022/12/14 10:28:01;;;;;;;24.55;11.52;;;;;;;-0.02;100.00;100106.28;5061880;28;20025;-70
2022/12/14 10:30:28;;;;;;;26.17;12.15;;;;;;;0.69;100.00;100090.47;5060151;28;20017;-70
2022/12/14 10:33:05;;;;;;;24.20;11.50;;;;;;;1.32;100.00;100102.81;5062275;28;20364;-69
2022/12/14 10:35:35;;;;;;;24.08;11.32;;;;;;;1.98;100.00;100095.13;5064494;28;20024;-70
2022/12/14 10:38:32;;;;;;;23.33;10.70;;;;;;;2.34;100.00;100102.16;5060722;28;20112;-68
2022/12/14 10:41:35;;;;;;;23.05;10.82;;;;;;;3.35;100.00;100101.09;5062234;28;20036;-67
2022/12/14 10:44:18;;;;;;;24.65;11.32;;;;;;;4.05;100.00;100099.88;5064319;28;20039;-67
2022/12/14 10:46:53;;;;;;;23.73;10.75;;;;;;;4.48;100.00;100105.88;5059823;28;20021;-71
2022/12/14 10:49:26;;;;;;;23.17;10.55;;;;;;;5.38;100.00;100108.16;5062467;28;20049;-69
2022/12/14 10:52:11;;;;;;;23.83;10.57;;;;;;;6.00;100.00;100106.31;5063024;28;20032;-69
2022/12/14 10:54:48;;;;;;;23.92;10.43;;;;;;;6.04;100.00;100106.41;5057558;28;20029;-69
2022/12/14 10:57:25;;;;;;;23.67;10.90;;;;;;;5.98;100.00;100101.06;5061848;28;20013;-66
2022/12/14 10:59:51;;;;;;;22.77;10.85;;;;;;;6.52;98.16;100095.47;5063975;28;20016;-67
2022/12/14 11:02:20;;;;;;;23.02;10.32;;;;;;;6.96;78.22;100097.56;5061877;28;20103;-68
2022/12/14 11:05:16;;;;;;;23.33;10.27;;;;;;;7.77;54.87;100096.28;5062938;28;20025;-69
2022/12/14 11:07:44;;;;;;;23.10;10.18;;;;;;;8.26;48.42;100099.06;5060685;28;20033;-71
2022/12/14 11:10:23;;;;;;;22.90;10.02;;;;;;;8.76;48.12;100093.88;5062803;28;20037;-69
2022/12/14 11:12:58;;;;;;;22.52;9.57;;;;;;;8.87;43.78;100100.91;5063789;28;20052;-70
2022/12/14 11:15:36;;;;;;;23.20;10.10;;;;;;;9.04;44.81;100103.53;5060980;28;20424;-73
2022/12/14 11:18:22;;;;;;;22.25;9.48;;;;;;;9.28;40.85;100103.50;5056848;28;20051;-69
2022/12/14 11:20:52;;;;;;;21.50;9.65;;;;;;;9.30;41.40;100099.94;5061305;28;20495;-72
2022/12/14 11:23:21;;;;;;;22.85;9.93;;;;;;;9.18;40.75;100098.22;5063451;28;20380;-69
2022/12/14 11:25:53;;;;;;;22.25;10.32;;;;;;;9.32;41.49;100099.94;5066061;28;20372;-69
2022/12/14 11:28:21;;;;;;;22.50;10.02;;;;;;;9.28;40.02;100107.00;5067586;28;20017;-70
2022/12/14 11:31:04;;;;;;;26.88;10.43;;;;;;;9.73;42.73;100099.81;5065704;28;20056;-70
2022/12/14 11:33:37;;;;;;;22.25;9.95;;;;;;;10.15;39.93;100101.38;5060551;28;20472;-70